sensor_id;sensor_type;location;lat;lon;timestamp;temperature;humidity
2024;DHT22;1016;48.770;9.154;2022-07-30T00:01:41;23.10;99.90
2024;DHT22;1016;48.770;9.154;2022-07-30T00:04:06;23.10;99.90
2024;DHT22;1016;48.770;9.154;2022-07-30T00:06:32;23.00;99.90
2024;DHT22;1016;48.770;9.154;2022-07-30T00:08:57;23.00;99.90
2024;DHT22;1016;48.770;9.154;2022-07-30T00:11:23;22.90;99.90
2024;DHT22;1016;48.770;9.154;2022-07-30T00:13:48;22.90;99.90
2024;DHT22;1016;48.770;9.154;2022-07-30T00:16:14;23.00;99.90
2024;DHT22;1016;48.770;9.154;2022-07-30T00:18:40;22.90;99.90
2024;DHT22;1016;48.770;9.154;2022-07-30T00:21:05;22.90;99.90
2024;DHT22;1016;48.770;9.154;2022-07-30T00:23:31;22.90;99.90
2024;DHT22;1016;48.770;9.154;2022-07-30T00:25:57;22.90;99.90
2024;DHT22;1016;48.770;9.154;2022-07-30T00:28:22;22.90;99.90
2024;DHT22;1016;48.770;9.154;2022-07-30T00:30:48;23.00;99.90
2024;DHT22;1016;48.770;9.154;2022-07-30T00:33:13;23.00;99.90
2024;DHT22;1016;48.770;9.154;2022-07-30T00:35:39;22.90;99.90
2024;DHT22;1016;48.770;9.154;2022-07-30T00:38:05;22.90;99.90
2024;DHT22;1016;48.770;9.154;2022-07-30T00:40:30;22.90;99.90
2024;DHT22;1016;48.770;9.154;2022-07-30T00:42:56;22.90;99.90
2024;DHT22;1016;48.770;9.154;2022-07-30T00:45:21;23.00;99.90
2024;DHT22;1016;48.770;9.154;2022-07-30T00:47:47;23.00;99.90
2024;DHT22;1016;48.770;9.154;2022-07-30T00:50:13;23.00;99.90
2024;DHT22;1016;48.770;9.154;2022-07-30T00:52:41;23.00;99.90
2024;DHT22;1016;48.770;9.154;2022-07-30T00:55:12;23.00;99.90
2024;DHT22;1016;48.770;9.154;2022-07-30T00:57:40;23.00;99.90
2024;DHT22;1016;48.770;9.154;2022-07-30T01:00:09;23.00;99.90
2024;DHT22;1016;48.770;9.154;2022-07-30T01:02:35;23.00;99.90
2024;DHT22;1016;48.770;9.154;2022-07-30T01:05:00;23.00;99.90
2024;DHT22;1016;48.770;9.154;2022-07-30T01:07:26;23.00;99.90
2024;DHT22;1016;48.770;9.154;2022-07-30T01:09:51;23.10;99.90
2024;DHT22;1016;48.770;9.154;2022-07-30T01:12:19;22.90;99.90
2024;DHT22;1016;48.770;9.154;2022-07-30T01:14:48;22.90;99.90
2024;DHT22;1016;48.770;9.154;2022-07-30T01:17:14;22.90;99.90
2024;DHT22;1016;48.770;9.154;2022-07-30T01:19:40;22.90;99.90
2024;DHT22;1016;48.770;9.154;2022-07-30T01:27:43;22.90;99.90
2024;DHT22;1016;48.770;9.154;2022-07-30T01:30:11;22.90;99.90
2024;DHT22;1016;48.770;9.154;2022-07-30T01:32:40;22.90;99.90
2024;DHT22;1016;48.770;9.154;2022-07-30T01:35:09;22.80;99.90
2024;DHT22;1016;48.770;9.154;2022-07-30T01:37:37;22.80;99.90
2024;DHT22;1016;48.770;9.154;2022-07-30T01:40:04;22.80;99.90
2024;DHT22;1016;48.770;9.154;2022-07-30T01:42:30;22.80;99.90
2024;DHT22;1016;48.770;9.154;2022-07-30T01:44:57;22.80;99.90
2024;DHT22;1016;48.770;9.154;2022-07-30T01:47:24;22.80;99.90
2024;DHT22;1016;48.770;9.154;2022-07-30T01:49:50;22.70;99.90
2024;DHT22;1016;48.770;9.154;2022-07-30T01:52:19;22.60;99.90
2024;DHT22;1016;48.770;9.154;2022-07-30T01:54:48;22.60;99.90
2024;DHT22;1016;48.770;9.154;2022-07-30T01:57:15;22.60;99.90
2024;DHT22;1016;48.770;9.154;2022-07-30T01:59:46;22.60;99.90
2024;DHT22;1016;48.770;9.154;2022-07-30T02:02:13;22.60;99.90
2024;DHT22;1016;48.770;9.154;2022-07-30T02:04:39;22.50;99.90
2024;DHT22;1016;48.770;9.154;2022-07-30T02:07:24;22.50;99.90
2024;DHT22;1016;48.770;9.154;2022-07-30T02:10:00;22.50;99.90
2024;DHT22;1016;48.770;9.154;2022-07-30T02:12:28;22.50;99.90
2024;DHT22;1016;48.770;9.154;2022-07-30T02:15:16;22.40;99.90
2024;DHT22;1016;48.770;9.154;2022-07-30T02:20:30;22.40;99.90
2024;DHT22;1016;48.770;9.154;2022-07-30T02:23:01;22.40;99.90
2024;DHT22;1016;48.770;9.154;2022-07-30T02:25:28;22.40;99.90
2024;DHT22;1016;48.770;9.154;2022-07-30T02:28:01;22.40;99.90
2024;DHT22;1016;48.770;9.154;2022-07-30T02:30:30;22.40;99.90
2024;DHT22;1016;48.770;9.154;2022-07-30T02:33:04;22.40;99.90
2024;DHT22;1016;48.770;9.154;2022-07-30T02:35:31;22.40;99.90
2024;DHT22;1016;48.770;9.154;2022-07-30T02:37:58;22.40;99.90
2024;DHT22;1016;48.770;9.154;2022-07-30T02:40:25;22.30;99.90
2024;DHT22;1016;48.770;9.154;2022-07-30T02:42:52;22.30;99.90
2024;DHT22;1016;48.770;9.154;2022-07-30T02:45:19;22.30;99.90
2024;DHT22;1016;48.770;9.154;2022-07-30T02:47:52;22.20;99.90
2024;DHT22;1016;48.770;9.154;2022-07-30T02:50:19;22.20;99.90
2024;DHT22;1016;48.770;9.154;2022-07-30T02:52:46;22.20;99.90
2024;DHT22;1016;48.770;9.154;2022-07-30T02:55:12;22.20;99.90
2024;DHT22;1016;48.770;9.154;2022-07-30T02:57:41;22.20;99.90
2024;DHT22;1016;48.770;9.154;2022-07-30T03:00:07;22.40;99.90
2024;DHT22;1016;48.770;9.154;2022-07-30T03:02:34;22.30;99.90
2024;DHT22;1016;48.770;9.154;2022-07-30T03:05:02;22.50;99.90
2024;DHT22;1016;48.770;9.154;2022-07-30T03:07:29;22.30;99.90
2024;DHT22;1016;48.770;9.154;2022-07-30T03:09:57;22.30;99.90
2024;DHT22;1016;48.770;9.154;2022-07-30T03:12:23;22.50;99.90
2024;DHT22;1016;48.770;9.154;2022-07-30T03:14:50;22.30;99.90
2024;DHT22;1016;48.770;9.154;2022-07-30T03:17:17;22.50;99.90
2024;DHT22;1016;48.770;9.154;2022-07-30T03:19:44;22.30;99.90
2024;DHT22;1016;48.770;9.154;2022-07-30T03:22:11;22.30;99.90
2024;DHT22;1016;48.770;9.154;2022-07-30T03:24:39;22.30;99.90
2024;DHT22;1016;48.770;9.154;2022-07-30T03:27:07;22.30;99.90
2024;DHT22;1016;48.770;9.154;2022-07-30T03:29:34;22.30;99.90
2024;DHT22;1016;48.770;9.154;2022-07-30T03:32:00;22.30;99.90
2024;DHT22;1016;48.770;9.154;2022-07-30T03:34:27;22.30;99.90
2024;DHT22;1016;48.770;9.154;2022-07-30T03:36:53;22.30;99.90
2024;DHT22;1016;48.770;9.154;2022-07-30T03:39:19;22.30;99.90
2024;DHT22;1016;48.770;9.154;2022-07-30T03:41:46;22.30;99.90
2024;DHT22;1016;48.770;9.154;2022-07-30T03:44:12;22.30;99.90
2024;DHT22;1016;48.770;9.154;2022-07-30T03:46:39;22.30;99.90
2024;DHT22;1016;48.770;9.154;2022-07-30T03:49:08;22.30;99.90
2024;DHT22;1016;48.770;9.154;2022-07-30T03:51:35;22.30;99.90
2024;DHT22;1016;48.770;9.154;2022-07-30T03:54:02;22.30;99.90
2024;DHT22;1016;48.770;9.154;2022-07-30T03:56:28;22.30;99.90
2024;DHT22;1016;48.770;9.154;2022-07-30T03:58:54;22.30;99.90
2024;DHT22;1016;48.770;9.154;2022-07-30T04:01:26;22.40;99.90
2024;DHT22;1016;48.770;9.154;2022-07-30T04:03:52;22.30;99.90
2024;DHT22;1016;48.770;9.154;2022-07-30T04:06:17;22.30;99.90
2024;DHT22;1016;48.770;9.154;2022-07-30T04:08:43;22.20;99.90
2024;DHT22;1016;48.770;9.154;2022-07-30T04:11:08;22.30;99.90
2024;DHT22;1016;48.770;9.154;2022-07-30T04:13:34;22.20;99.90
2024;DHT22;1016;48.770;9.154;2022-07-30T04:16:40;22.20;99.90
2024;DHT22;1016;48.770;9.154;2022-07-30T04:19:11;22.20;99.90
2024;DHT22;1016;48.770;9.154;2022-07-30T04:21:40;22.20;99.90
2024;DHT22;1016;48.770;9.154;2022-07-30T04:24:08;22.40;99.90
2024;DHT22;1016;48.770;9.154;2022-07-30T04:26:35;22.10;99.90
2024;DHT22;1016;48.770;9.154;2022-07-30T04:29:04;22.30;99.90
2024;DHT22;1016;48.770;9.154;2022-07-30T04:31:30;22.10;99.90
2024;DHT22;1016;48.770;9.154;2022-07-30T04:34:03;22.00;99.90
2024;DHT22;1016;48.770;9.154;2022-07-30T04:36:30;22.00;99.90
2024;DHT22;1016;48.770;9.154;2022-07-30T04:38:57;22.00;99.90
2024;DHT22;1016;48.770;9.154;2022-07-30T04:41:24;22.10;99.90
2024;DHT22;1016;48.770;9.154;2022-07-30T04:43:50;22.10;99.90
2024;DHT22;1016;48.770;9.154;2022-07-30T04:46:16;22.10;99.90
2024;DHT22;1016;48.770;9.154;2022-07-30T04:48:41;22.10;99.90
2024;DHT22;1016;48.770;9.154;2022-07-30T04:51:36;22.10;99.90
2024;DHT22;1016;48.770;9.154;2022-07-30T04:54:04;22.20;99.90
2024;DHT22;1016;48.770;9.154;2022-07-30T04:56:32;22.20;99.90
2024;DHT22;1016;48.770;9.154;2022-07-30T04:58:59;22.20;99.90
2024;DHT22;1016;48.770;9.154;2022-07-30T05:01:30;22.20;99.90
2024;DHT22;1016;48.770;9.154;2022-07-30T05:03:58;22.30;99.90
2024;DHT22;1016;48.770;9.154;2022-07-30T05:06:25;22.30;99.90
2024;DHT22;1016;48.770;9.154;2022-07-30T05:08:52;22.40;99.90
2024;DHT22;1016;48.770;9.154;2022-07-30T05:11:17;22.30;99.90
2024;DHT22;1016;48.770;9.154;2022-07-30T05:13:44;22.40;99.90
2024;DHT22;1016;48.770;9.154;2022-07-30T05:16:10;22.40;99.90
2024;DHT22;1016;48.770;9.154;2022-07-30T05:18:36;22.50;99.90
2024;DHT22;1016;48.770;9.154;2022-07-30T05:21:02;22.50;99.90
2024;DHT22;1016;48.770;9.154;2022-07-30T05:23:28;22.50;99.90
2024;DHT22;1016;48.770;9.154;2022-07-30T05:25:53;22.60;99.90
2024;DHT22;1016;48.770;9.154;2022-07-30T05:28:19;22.60;99.90
2024;DHT22;1016;48.770;9.154;2022-07-30T05:30:44;22.60;99.90
2024;DHT22;1016;48.770;9.154;2022-07-30T05:33:10;22.70;99.90
2024;DHT22;1016;48.770;9.154;2022-07-30T05:35:35;22.70;99.90
2024;DHT22;1016;48.770;9.154;2022-07-30T05:38:01;22.70;99.90
2024;DHT22;1016;48.770;9.154;2022-07-30T05:40:26;22.80;99.90
2024;DHT22;1016;48.770;9.154;2022-07-30T05:42:52;22.90;99.90
2024;DHT22;1016;48.770;9.154;2022-07-30T05:45:18;22.80;99.90
2024;DHT22;1016;48.770;9.154;2022-07-30T05:47:43;22.80;99.90
2024;DHT22;1016;48.770;9.154;2022-07-30T05:50:09;22.80;99.90
2024;DHT22;1016;48.770;9.154;2022-07-30T05:52:34;22.80;99.90
2024;DHT22;1016;48.770;9.154;2022-07-30T05:55:00;22.90;99.90
2024;DHT22;1016;48.770;9.154;2022-07-30T05:57:25;22.90;99.90
2024;DHT22;1016;48.770;9.154;2022-07-30T05:59:51;23.00;99.90
2024;DHT22;1016;48.770;9.154;2022-07-30T06:02:16;23.00;99.90
2024;DHT22;1016;48.770;9.154;2022-07-30T06:04:42;23.10;99.90
2024;DHT22;1016;48.770;9.154;2022-07-30T06:07:07;23.30;99.90
2024;DHT22;1016;48.770;9.154;2022-07-30T06:09:33;23.10;99.90
2024;DHT22;1016;48.770;9.154;2022-07-30T06:11:58;23.20;99.90
2024;DHT22;1016;48.770;9.154;2022-07-30T06:14:24;23.40;99.90
2024;DHT22;1016;48.770;9.154;2022-07-30T06:16:50;23.20;99.90
2024;DHT22;1016;48.770;9.154;2022-07-30T06:19:15;23.20;99.90
2024;DHT22;1016;48.770;9.154;2022-07-30T06:21:41;23.30;99.90
2024;DHT22;1016;48.770;9.154;2022-07-30T06:24:07;23.30;99.90
2024;DHT22;1016;48.770;9.154;2022-07-30T06:26:32;23.40;99.90
2024;DHT22;1016;48.770;9.154;2022-07-30T06:28:58;23.60;99.90
2024;DHT22;1016;48.770;9.154;2022-07-30T06:31:23;23.70;99.90
2024;DHT22;1016;48.770;9.154;2022-07-30T06:33:49;23.50;99.90
2024;DHT22;1016;48.770;9.154;2022-07-30T06:36:14;23.60;99.90
2024;DHT22;1016;48.770;9.154;2022-07-30T06:38:40;23.60;99.90
2024;DHT22;1016;48.770;9.154;2022-07-30T06:41:06;23.60;99.90
2024;DHT22;1016;48.770;9.154;2022-07-30T06:43:32;23.60;99.90
2024;DHT22;1016;48.770;9.154;2022-07-30T06:45:57;23.70;99.90
2024;DHT22;1016;48.770;9.154;2022-07-30T06:48:23;23.70;99.90
2024;DHT22;1016;48.770;9.154;2022-07-30T06:50:49;23.80;99.90
2024;DHT22;1016;48.770;9.154;2022-07-30T06:53:14;24.00;99.90
2024;DHT22;1016;48.770;9.154;2022-07-30T06:55:40;24.00;99.90
2024;DHT22;1016;48.770;9.154;2022-07-30T06:58:05;24.00;99.90
2024;DHT22;1016;48.770;9.154;2022-07-30T07:00:31;23.90;99.90
2024;DHT22;1016;48.770;9.154;2022-07-30T07:02:56;23.90;99.90
2024;DHT22;1016;48.770;9.154;2022-07-30T07:05:22;23.90;99.90
2024;DHT22;1016;48.770;9.154;2022-07-30T07:07:48;23.90;99.90
2024;DHT22;1016;48.770;9.154;2022-07-30T07:10:13;24.00;99.90
2024;DHT22;1016;48.770;9.154;2022-07-30T07:12:39;24.00;99.90
2024;DHT22;1016;48.770;9.154;2022-07-30T07:15:05;24.20;99.90
2024;DHT22;1016;48.770;9.154;2022-07-30T07:17:31;24.20;99.90
2024;DHT22;1016;48.770;9.154;2022-07-30T07:19:57;24.20;99.90
2024;DHT22;1016;48.770;9.154;2022-07-30T07:22:22;24.20;99.90
2024;DHT22;1016;48.770;9.154;2022-07-30T07:24:48;24.20;99.90
2024;DHT22;1016;48.770;9.154;2022-07-30T07:27:13;24.50;99.90
2024;DHT22;1016;48.770;9.154;2022-07-30T07:29:40;24.30;99.90
2024;DHT22;1016;48.770;9.154;2022-07-30T07:32:05;24.50;99.90
2024;DHT22;1016;48.770;9.154;2022-07-30T07:34:31;24.40;99.90
2024;DHT22;1016;48.770;9.154;2022-07-30T07:36:56;24.30;99.90
2024;DHT22;1016;48.770;9.154;2022-07-30T07:39:22;24.30;99.90
2024;DHT22;1016;48.770;9.154;2022-07-30T07:41:47;24.30;99.90
2024;DHT22;1016;48.770;9.154;2022-07-30T07:44:13;24.40;99.90
2024;DHT22;1016;48.770;9.154;2022-07-30T07:46:38;24.70;99.90
2024;DHT22;1016;48.770;9.154;2022-07-30T07:49:04;24.50;99.90
2024;DHT22;1016;48.770;9.154;2022-07-30T07:51:29;24.50;99.90
2024;DHT22;1016;48.770;9.154;2022-07-30T07:53:55;24.60;99.90
2024;DHT22;1016;48.770;9.154;2022-07-30T07:56:21;24.70;99.30
2024;DHT22;1016;48.770;9.154;2022-07-30T07:58:46;24.70;98.50
2024;DHT22;1016;48.770;9.154;2022-07-30T08:01:13;24.70;97.60
2024;DHT22;1016;48.770;9.154;2022-07-30T08:03:38;24.80;97.50
2024;DHT22;1016;48.770;9.154;2022-07-30T08:06:04;24.80;97.60
2024;DHT22;1016;48.770;9.154;2022-07-30T08:08:30;24.90;97.50
2024;DHT22;1016;48.770;9.154;2022-07-30T08:10:55;24.80;97.80
2024;DHT22;1016;48.770;9.154;2022-07-30T08:13:21;24.90;97.90
2024;DHT22;1016;48.770;9.154;2022-07-30T08:15:48;24.90;97.70
2024;DHT22;1016;48.770;9.154;2022-07-30T08:18:14;24.90;97.30
2024;DHT22;1016;48.770;9.154;2022-07-30T08:20:39;25.00;97.10
2024;DHT22;1016;48.770;9.154;2022-07-30T08:23:05;25.00;96.40
2024;DHT22;1016;48.770;9.154;2022-07-30T08:25:31;24.90;95.80
2024;DHT22;1016;48.770;9.154;2022-07-30T08:27:56;25.00;95.70
2024;DHT22;1016;48.770;9.154;2022-07-30T08:30:23;25.10;95.90
2024;DHT22;1016;48.770;9.154;2022-07-30T08:32:48;25.10;96.00
2024;DHT22;1016;48.770;9.154;2022-07-30T08:35:14;25.20;95.30
2024;DHT22;1016;48.770;9.154;2022-07-30T08:37:39;25.20;94.80
2024;DHT22;1016;48.770;9.154;2022-07-30T08:40:08;25.30;94.90
2024;DHT22;1016;48.770;9.154;2022-07-30T08:42:34;25.30;94.40
2024;DHT22;1016;48.770;9.154;2022-07-30T08:45:00;25.30;94.90
2024;DHT22;1016;48.770;9.154;2022-07-30T08:47:30;25.50;94.90
2024;DHT22;1016;48.770;9.154;2022-07-30T08:49:57;25.40;94.60
2024;DHT22;1016;48.770;9.154;2022-07-30T08:52:26;25.50;94.00
2024;DHT22;1016;48.770;9.154;2022-07-30T08:54:53;25.60;93.40
2024;DHT22;1016;48.770;9.154;2022-07-30T08:57:19;25.70;93.70
2024;DHT22;1016;48.770;9.154;2022-07-30T08:59:46;25.50;93.20
2024;DHT22;1016;48.770;9.154;2022-07-30T09:02:12;25.60;93.00
2024;DHT22;1016;48.770;9.154;2022-07-30T09:04:38;25.60;92.70
2024;DHT22;1016;48.770;9.154;2022-07-30T09:07:03;25.80;92.30
2024;DHT22;1016;48.770;9.154;2022-07-30T09:09:29;25.70;92.40
2024;DHT22;1016;48.770;9.154;2022-07-30T09:11:55;25.70;91.80
2024;DHT22;1016;48.770;9.154;2022-07-30T09:14:20;25.70;92.20
2024;DHT22;1016;48.770;9.154;2022-07-30T09:16:46;25.70;92.00
2024;DHT22;1016;48.770;9.154;2022-07-30T09:19:15;25.80;91.90
2024;DHT22;1016;48.770;9.154;2022-07-30T09:21:41;25.80;91.40
2024;DHT22;1016;48.770;9.154;2022-07-30T09:24:10;25.90;91.30
2024;DHT22;1016;48.770;9.154;2022-07-30T09:26:58;25.90;91.30
2024;DHT22;1016;48.770;9.154;2022-07-30T09:29:29;25.90;91.30
2024;DHT22;1016;48.770;9.154;2022-07-30T09:32:03;25.90;90.80
2024;DHT22;1016;48.770;9.154;2022-07-30T09:34:34;26.00;90.60
2024;DHT22;1016;48.770;9.154;2022-07-30T09:37:02;26.00;90.20
2024;DHT22;1016;48.770;9.154;2022-07-30T09:41:58;25.90;90.80
2024;DHT22;1016;48.770;9.154;2022-07-30T09:44:25;26.00;90.60
2024;DHT22;1016;48.770;9.154;2022-07-30T09:46:52;26.10;90.00
2024;DHT22;1016;48.770;9.154;2022-07-30T09:49:28;26.20;89.50
2024;DHT22;1016;48.770;9.154;2022-07-30T09:51:54;26.40;88.20
2024;DHT22;1016;48.770;9.154;2022-07-30T09:54:20;26.10;88.00
2024;DHT22;1016;48.770;9.154;2022-07-30T09:56:45;26.20;89.00
2024;DHT22;1016;48.770;9.154;2022-07-30T09:59:27;26.40;87.80
2024;DHT22;1016;48.770;9.154;2022-07-30T10:01:55;26.30;87.40
2024;DHT22;1016;48.770;9.154;2022-07-30T10:04:29;26.50;87.40
2024;DHT22;1016;48.770;9.154;2022-07-30T10:06:57;26.50;86.40
2024;DHT22;1016;48.770;9.154;2022-07-30T10:09:31;26.60;85.90
2024;DHT22;1016;48.770;9.154;2022-07-30T10:11:59;26.70;86.10
2024;DHT22;1016;48.770;9.154;2022-07-30T10:14:29;26.50;85.60
2024;DHT22;1016;48.770;9.154;2022-07-30T10:16:57;26.60;84.40
2024;DHT22;1016;48.770;9.154;2022-07-30T10:19:23;26.70;83.90
2024;DHT22;1016;48.770;9.154;2022-07-30T10:21:49;26.90;83.90
2024;DHT22;1016;48.770;9.154;2022-07-30T10:24:19;27.10;83.20
2024;DHT22;1016;48.770;9.154;2022-07-30T10:26:48;26.90;82.50
2024;DHT22;1016;48.770;9.154;2022-07-30T10:29:15;26.80;82.60
2024;DHT22;1016;48.770;9.154;2022-07-30T10:31:46;26.70;81.00
2024;DHT22;1016;48.770;9.154;2022-07-30T10:34:13;26.80;81.20
2024;DHT22;1016;48.770;9.154;2022-07-30T10:36:46;26.90;81.90
2024;DHT22;1016;48.770;9.154;2022-07-30T10:39:19;26.90;81.30
2024;DHT22;1016;48.770;9.154;2022-07-30T10:47:15;26.80;81.60
2024;DHT22;1016;48.770;9.154;2022-07-30T10:50:09;26.80;81.50
2024;DHT22;1016;48.770;9.154;2022-07-30T10:52:48;27.00;81.00
2024;DHT22;1016;48.770;9.154;2022-07-30T10:55:33;27.10;80.10
2024;DHT22;1016;48.770;9.154;2022-07-30T10:58:08;27.20;79.90
2024;DHT22;1016;48.770;9.154;2022-07-30T11:06:37;27.40;78.30
2024;DHT22;1016;48.770;9.154;2022-07-30T11:08:38;27.50;77.30
2024;DHT22;1016;48.770;9.154;2022-07-30T11:13:55;27.60;76.30
2024;DHT22;1016;48.770;9.154;2022-07-30T11:17:08;27.50;76.00
2024;DHT22;1016;48.770;9.154;2022-07-30T11:19:16;27.40;76.00
2024;DHT22;1016;48.770;9.154;2022-07-30T11:24:46;27.20;76.60
2024;DHT22;1016;48.770;9.154;2022-07-30T11:27:48;27.00;76.30
2024;DHT22;1016;48.770;9.154;2022-07-30T11:32:44;26.90;74.30
2024;DHT22;1016;48.770;9.154;2022-07-30T11:35:23;26.80;75.00
2024;DHT22;1016;48.770;9.154;2022-07-30T11:38:07;26.70;74.80
2024;DHT22;1016;48.770;9.154;2022-07-30T11:40:33;26.90;75.80
2024;DHT22;1016;48.770;9.154;2022-07-30T11:43:21;26.90;75.80
2024;DHT22;1016;48.770;9.154;2022-07-30T11:46:09;26.90;76.40
2024;DHT22;1016;48.770;9.154;2022-07-30T11:48:37;26.80;76.80
2024;DHT22;1016;48.770;9.154;2022-07-30T11:51:03;27.00;76.60
2024;DHT22;1016;48.770;9.154;2022-07-30T11:53:29;26.70;76.30
2024;DHT22;1016;48.770;9.154;2022-07-30T11:55:57;26.70;76.90
2024;DHT22;1016;48.770;9.154;2022-07-30T11:58:34;26.70;77.00
2024;DHT22;1016;48.770;9.154;2022-07-30T12:01:12;26.60;77.40
2024;DHT22;1016;48.770;9.154;2022-07-30T12:03:42;26.60;76.70
2024;DHT22;1016;48.770;9.154;2022-07-30T12:06:13;26.60;77.60
2024;DHT22;1016;48.770;9.154;2022-07-30T12:08:51;26.70;76.50
2024;DHT22;1016;48.770;9.154;2022-07-30T12:11:20;26.80;75.20
2024;DHT22;1016;48.770;9.154;2022-07-30T12:13:55;26.80;74.50
2024;DHT22;1016;48.770;9.154;2022-07-30T12:16:24;26.90;76.00
2024;DHT22;1016;48.770;9.154;2022-07-30T12:18:50;27.10;76.10
2024;DHT22;1016;48.770;9.154;2022-07-30T12:21:15;27.00;74.20
2024;DHT22;1016;48.770;9.154;2022-07-30T12:23:42;27.10;74.20
2024;DHT22;1016;48.770;9.154;2022-07-30T12:26:25;27.20;72.80
2024;DHT22;1016;48.770;9.154;2022-07-30T12:28:51;27.20;72.50
2024;DHT22;1016;48.770;9.154;2022-07-30T12:31:17;27.20;72.00
2024;DHT22;1016;48.770;9.154;2022-07-30T12:33:43;27.20;72.60
2024;DHT22;1016;48.770;9.154;2022-07-30T12:36:08;27.20;72.70
2024;DHT22;1016;48.770;9.154;2022-07-30T12:38:45;27.20;72.60
2024;DHT22;1016;48.770;9.154;2022-07-30T12:41:13;27.20;72.40
2024;DHT22;1016;48.770;9.154;2022-07-30T12:43:53;27.10;72.40
2024;DHT22;1016;48.770;9.154;2022-07-30T12:46:21;27.10;72.70
2024;DHT22;1016;48.770;9.154;2022-07-30T12:51:13;27.30;71.90
2024;DHT22;1016;48.770;9.154;2022-07-30T12:53:39;27.30;71.70
2024;DHT22;1016;48.770;9.154;2022-07-30T12:56:19;27.50;71.10
2024;DHT22;1016;48.770;9.154;2022-07-30T12:58:45;27.40;71.40
2024;DHT22;1016;48.770;9.154;2022-07-30T13:01:11;27.50;71.90
2024;DHT22;1016;48.770;9.154;2022-07-30T13:03:37;27.50;71.60
2024;DHT22;1016;48.770;9.154;2022-07-30T13:06:14;27.60;71.60
2024;DHT22;1016;48.770;9.154;2022-07-30T13:08:49;27.50;71.40
2024;DHT22;1016;48.770;9.154;2022-07-30T13:11:15;27.50;71.50
2024;DHT22;1016;48.770;9.154;2022-07-30T13:13:41;27.50;72.20
2024;DHT22;1016;48.770;9.154;2022-07-30T13:16:07;27.60;72.00
2024;DHT22;1016;48.770;9.154;2022-07-30T13:18:34;27.60;71.70
2024;DHT22;1016;48.770;9.154;2022-07-30T13:21:01;27.60;70.80
2024;DHT22;1016;48.770;9.154;2022-07-30T13:23:27;27.50;70.10
2024;DHT22;1016;48.770;9.154;2022-07-30T13:25:55;27.50;70.70
2024;DHT22;1016;48.770;9.154;2022-07-30T13:28:20;27.40;70.60
2024;DHT22;1016;48.770;9.154;2022-07-30T13:30:47;27.40;69.70
2024;DHT22;1016;48.770;9.154;2022-07-30T13:33:13;27.60;70.20
2024;DHT22;1016;48.770;9.154;2022-07-30T13:35:39;27.40;70.40
2024;DHT22;1016;48.770;9.154;2022-07-30T13:38:05;27.80;71.30
2024;DHT22;1016;48.770;9.154;2022-07-30T13:40:31;27.90;70.40
2024;DHT22;1016;48.770;9.154;2022-07-30T13:43:01;28.00;70.20
2024;DHT22;1016;48.770;9.154;2022-07-30T13:45:27;28.00;69.90
2024;DHT22;1016;48.770;9.154;2022-07-30T13:47:56;27.80;70.40
2024;DHT22;1016;48.770;9.154;2022-07-30T13:50:21;27.60;70.70
2024;DHT22;1016;48.770;9.154;2022-07-30T13:52:47;30.60;70.90
2024;DHT22;1016;48.770;9.154;2022-07-30T13:55:13;31.40;69.00
2024;DHT22;1016;48.770;9.154;2022-07-30T13:57:38;31.30;65.20
2024;DHT22;1016;48.770;9.154;2022-07-30T14:00:05;30.90;65.50
2024;DHT22;1016;48.770;9.154;2022-07-30T14:02:31;32.30;66.90
2024;DHT22;1016;48.770;9.154;2022-07-30T14:04:57;34.90;63.60
2024;DHT22;1016;48.770;9.154;2022-07-30T14:09:49;38.80;67.20
2024;DHT22;1016;48.770;9.154;2022-07-30T14:12:14;38.60;54.60
2024;DHT22;1016;48.770;9.154;2022-07-30T14:14:40;38.00;52.40
2024;DHT22;1016;48.770;9.154;2022-07-30T14:17:05;38.80;51.20
2024;DHT22;1016;48.770;9.154;2022-07-30T14:19:31;37.70;49.30
2024;DHT22;1016;48.770;9.154;2022-07-30T14:21:56;34.80;49.50
2024;DHT22;1016;48.770;9.154;2022-07-30T14:24:22;34.80;50.10
2024;DHT22;1016;48.770;9.154;2022-07-30T14:26:49;34.00;51.20
2024;DHT22;1016;48.770;9.154;2022-07-30T14:29:16;35.00;53.30
2024;DHT22;1016;48.770;9.154;2022-07-30T14:31:42;36.20;51.30
2024;DHT22;1016;48.770;9.154;2022-07-30T14:34:08;36.00;50.10
2024;DHT22;1016;48.770;9.154;2022-07-30T14:36:34;35.30;49.60
2024;DHT22;1016;48.770;9.154;2022-07-30T14:39:01;34.30;50.40
2024;DHT22;1016;48.770;9.154;2022-07-30T14:41:29;33.40;51.00
2024;DHT22;1016;48.770;9.154;2022-07-30T14:43:55;32.60;51.60
2024;DHT22;1016;48.770;9.154;2022-07-30T14:46:21;32.00;51.90
2024;DHT22;1016;48.770;9.154;2022-07-30T14:48:47;31.70;52.70
2024;DHT22;1016;48.770;9.154;2022-07-30T14:51:13;31.10;53.20
2024;DHT22;1016;48.770;9.154;2022-07-30T14:53:39;30.80;53.50
2024;DHT22;1016;48.770;9.154;2022-07-30T14:56:05;30.40;54.00
2024;DHT22;1016;48.770;9.154;2022-07-30T14:58:31;30.30;55.50
2024;DHT22;1016;48.770;9.154;2022-07-30T15:00:56;30.00;54.60
2024;DHT22;1016;48.770;9.154;2022-07-30T15:03:22;29.80;55.20
2024;DHT22;1016;48.770;9.154;2022-07-30T15:05:47;29.60;55.50
2024;DHT22;1016;48.770;9.154;2022-07-30T15:08:13;29.50;55.80
2024;DHT22;1016;48.770;9.154;2022-07-30T15:10:39;29.50;56.40
2024;DHT22;1016;48.770;9.154;2022-07-30T15:13:04;29.20;56.60
2024;DHT22;1016;48.770;9.154;2022-07-30T15:15:30;29.00;56.50
2024;DHT22;1016;48.770;9.154;2022-07-30T15:17:57;28.80;56.60
2024;DHT22;1016;48.770;9.154;2022-07-30T15:20:23;28.80;57.10
2024;DHT22;1016;48.770;9.154;2022-07-30T15:22:49;28.60;57.40
2024;DHT22;1016;48.770;9.154;2022-07-30T15:25:14;28.60;57.50
2024;DHT22;1016;48.770;9.154;2022-07-30T15:27:40;28.50;57.60
2024;DHT22;1016;48.770;9.154;2022-07-30T15:30:05;28.60;57.70
2024;DHT22;1016;48.770;9.154;2022-07-30T15:32:31;28.50;58.40
2024;DHT22;1016;48.770;9.154;2022-07-30T15:34:57;28.40;58.70
2024;DHT22;1016;48.770;9.154;2022-07-30T15:37:25;28.40;59.00
2024;DHT22;1016;48.770;9.154;2022-07-30T15:39:51;28.30;59.10
2024;DHT22;1016;48.770;9.154;2022-07-30T15:42:16;28.30;59.00
2024;DHT22;1016;48.770;9.154;2022-07-30T15:44:42;28.20;59.00
2024;DHT22;1016;48.770;9.154;2022-07-30T15:47:07;28.20;59.20
2024;DHT22;1016;48.770;9.154;2022-07-30T15:49:33;28.10;59.80
2024;DHT22;1016;48.770;9.154;2022-07-30T15:51:59;28.10;60.50
2024;DHT22;1016;48.770;9.154;2022-07-30T15:54:25;28.20;60.30
2024;DHT22;1016;48.770;9.154;2022-07-30T15:56:52;27.90;59.90
2024;DHT22;1016;48.770;9.154;2022-07-30T15:59:19;28.00;60.70
2024;DHT22;1016;48.770;9.154;2022-07-30T16:01:46;28.20;60.80
2024;DHT22;1016;48.770;9.154;2022-07-30T16:04:12;28.20;61.00
2024;DHT22;1016;48.770;9.154;2022-07-30T16:06:38;28.00;61.20
2024;DHT22;1016;48.770;9.154;2022-07-30T16:09:04;28.00;61.20
2024;DHT22;1016;48.770;9.154;2022-07-30T16:11:31;28.00;61.90
2024;DHT22;1016;48.770;9.154;2022-07-30T16:13:57;28.10;61.10
2024;DHT22;1016;48.770;9.154;2022-07-30T16:16:22;28.00;60.80
2024;DHT22;1016;48.770;9.154;2022-07-30T16:18:48;28.00;60.30
2024;DHT22;1016;48.770;9.154;2022-07-30T16:21:14;27.90;60.20
2024;DHT22;1016;48.770;9.154;2022-07-30T16:23:39;27.90;60.80
2024;DHT22;1016;48.770;9.154;2022-07-30T16:26:07;27.80;60.50
2024;DHT22;1016;48.770;9.154;2022-07-30T16:28:33;27.70;61.00
2024;DHT22;1016;48.770;9.154;2022-07-30T16:30:58;27.60;61.30
2024;DHT22;1016;48.770;9.154;2022-07-30T16:33:24;27.60;60.50
2024;DHT22;1016;48.770;9.154;2022-07-30T16:35:50;27.60;60.80
2024;DHT22;1016;48.770;9.154;2022-07-30T16:38:15;27.40;61.20
2024;DHT22;1016;48.770;9.154;2022-07-30T16:40:41;27.40;61.70